Terminal Aerodrome Forecast
Issued by NWS Twin Cities, MN

Home | Current Version | Previous Version | Text Only | Print | Product List | Glossary Off
Versions: 1 2 3 4 5 6 7 8 9 10 11 12 13 14

677
FTUS43 KMPX 192340
TAFSTC
TAF
KSTC 192340Z 2000/2024 06009KT P6SM OVC090
     FM201600 07010G18KT 6SM -RA BR SCT020 OVC040
     FM201900 06011G19KT 4SM RA BR SCT010 OVC018
     FM202200 06009G16KT 3SM RA BR OVC008=

USA.gov is the U.S. government's official web portal to all federal, state and local government web resources and services.